createdAt,value
2022-09-15T00:01:31.281Z,99878.84
2022-09-15T00:03:58.013Z,99880.31
2022-09-15T00:06:24.659Z,99852.25
2022-09-15T00:08:51.214Z,99842.06
2022-09-15T00:11:20.034Z,99886.81
2022-09-15T00:13:48.618Z,99883.72
2022-09-15T00:16:16.896Z,99873.56
2022-09-15T00:18:44.946Z,99883.38
2022-09-15T00:21:13.594Z,99880.34
2022-09-15T00:23:40.455Z,99885.22
2022-09-15T00:26:08.901Z,99882.00
2022-09-15T00:28:35.673Z,99872.75
2022-09-15T00:31:07.037Z,99884.22
2022-09-15T00:33:33.906Z,99891.72
2022-09-15T00:36:03.242Z,99880.56
2022-09-15T00:38:32.395Z,99891.13
2022-09-15T00:41:00.513Z,99897.06
2022-09-15T00:43:45.417Z,99894.41
2022-09-15T00:46:14.651Z,99899.72
2022-09-15T00:48:45.371Z,99889.63
2022-09-15T00:51:16.490Z,99879.34
2022-09-15T00:53:46.084Z,99897.22
2022-09-15T00:56:15.923Z,99891.19
2022-09-15T00:58:52.305Z,99887.53
2022-09-15T01:01:20.328Z,99900.38
2022-09-15T01:03:46.950Z,99906.06
2022-09-15T01:06:18.129Z,99885.63
2022-09-15T01:08:51.413Z,99861.75
2022-09-15T01:11:18.518Z,99898.19
2022-09-15T01:13:45.426Z,99905.03
2022-09-15T01:16:19.056Z,99917.53
2022-09-15T01:19:01.193Z,99911.13
2022-09-15T01:21:36.450Z,99913.84
2022-09-15T01:24:42.361Z,99900.63
2022-09-15T01:27:38.100Z,99908.91
2022-09-15T01:30:08.726Z,99909.94
2022-09-15T01:32:49.983Z,99846.50
2022-09-15T01:35:30.291Z,99913.31
2022-09-15T01:38:03.266Z,99885.25
2022-09-15T01:40:35.363Z,99864.38
2022-09-15T01:43:05.352Z,99916.72
2022-09-15T01:45:35.111Z,99919.94
2022-09-15T01:48:06.531Z,99917.47
2022-09-15T01:50:37.081Z,99915.97
2022-09-15T01:53:09.986Z,99895.88
2022-09-15T01:55:41.408Z,99919.38
2022-09-15T01:58:08.273Z,99923.69
2022-09-15T02:00:41.469Z,99905.69
2022-09-15T02:03:16.490Z,99908.06
2022-09-15T02:05:48.438Z,99921.38
2022-09-15T02:08:20.869Z,99920.72
2022-09-15T02:10:57.331Z,99910.59
2022-09-15T02:13:31.618Z,99913.09
2022-09-15T02:16:00.378Z,99909.66
2022-09-15T02:18:34.886Z,99899.69
2022-09-15T02:21:07.878Z,99923.34
2022-09-15T02:23:39.928Z,99913.59
2022-09-15T02:26:11.071Z,99921.94
2022-09-15T02:28:39.345Z,99928.38
2022-09-15T02:31:10.565Z,99925.22
2022-09-15T02:33:41.035Z,99923.19
2022-09-15T02:36:11.427Z,99919.06
2022-09-15T02:38:43.691Z,99899.47
2022-09-15T02:41:10.394Z,99915.00
2022-09-15T02:43:44.547Z,99874.19
2022-09-15T02:46:12.588Z,99896.75
2022-09-15T02:48:39.340Z,99899.53
2022-09-15T02:51:06.213Z,99871.41
2022-09-15T02:53:32.958Z,99855.41
2022-09-15T02:55:59.643Z,99923.56
2022-09-15T02:58:26.287Z,99907.69
2022-09-15T03:00:52.903Z,99913.94
2022-09-15T03:03:20.873Z,99913.28
2022-09-15T03:05:47.718Z,99907.00
2022-09-15T03:08:14.220Z,99897.81
2022-09-15T03:10:40.764Z,99929.59
2022-09-15T03:13:07.299Z,99932.63
2022-09-15T03:15:33.891Z,99928.63
2022-09-15T03:18:01.574Z,99931.91
2022-09-15T03:20:29.513Z,99899.88
2022-09-15T03:22:56.022Z,99942.13
2022-09-15T03:25:22.797Z,99946.41
2022-09-15T03:27:49.337Z,99954.19
2022-09-15T03:30:15.929Z,99933.16
2022-09-15T03:32:42.445Z,99926.03
2022-09-15T03:35:09.774Z,99929.88
2022-09-15T03:37:37.663Z,99945.88
2022-09-15T03:40:05.186Z,99917.13
2022-09-15T03:42:31.828Z,99949.41
2022-09-15T03:44:58.439Z,99956.50
2022-09-15T03:47:24.967Z,99952.00
2022-09-15T03:49:51.703Z,99958.63
2022-09-15T03:52:18.210Z,99910.94
2022-09-15T03:54:48.338Z,99948.81
2022-09-15T03:57:14.876Z,99927.97
2022-09-15T03:59:41.411Z,99952.97
2022-09-15T04:02:08.486Z,99947.69
2022-09-15T04:04:35.545Z,99848.28
2022-09-15T04:07:02.653Z,99886.84
2022-09-15T04:09:29.414Z,99871.75
2022-09-15T04:11:57.833Z,99951.31
2022-09-15T04:14:24.477Z,99958.28
2022-09-15T04:16:51.150Z,99954.63
2022-09-15T04:19:17.916Z,99957.28
2022-09-15T04:21:44.427Z,99932.94
2022-09-15T04:24:10.963Z,99951.13
2022-09-15T04:26:38.001Z,99953.13
2022-09-15T04:29:12.441Z,99952.47
2022-09-15T04:31:39.120Z,99946.88
2022-09-15T04:34:08.258Z,99878.06
2022-09-15T04:36:35.095Z,99942.97
2022-09-15T04:39:01.724Z,99945.63
2022-09-15T04:41:28.804Z,99920.81
2022-09-15T04:43:55.511Z,99948.47
2022-09-15T04:46:23.511Z,99942.50
2022-09-15T04:48:50.059Z,99946.69
2022-09-15T04:51:19.531Z,99964.31
2022-09-15T04:53:46.736Z,99964.31
2022-09-15T04:56:15.451Z,99926.59
2022-09-15T04:58:43.723Z,99952.09
2022-09-15T05:01:12.781Z,99970.47
2022-09-15T05:03:41.127Z,99931.75
2022-09-15T05:06:10.010Z,99977.13
2022-09-15T05:08:37.309Z,99937.41
2022-09-15T05:11:06.106Z,99968.69
2022-09-15T05:13:33.766Z,99964.22
2022-09-15T05:16:04.370Z,99973.94
2022-09-15T05:18:31.063Z,99977.25
2022-09-15T05:21:00.074Z,99980.22
2022-09-15T05:23:26.650Z,99983.06
2022-09-15T05:25:56.696Z,99978.94
2022-09-15T05:28:23.690Z,99987.75
2022-09-15T05:30:50.334Z,99985.63
2022-09-15T05:33:16.905Z,99973.88
2022-09-15T05:35:50.546Z,99983.97
2022-09-15T05:38:18.953Z,99983.28
2022-09-15T05:40:45.525Z,99980.63
2022-09-15T05:43:12.352Z,99969.25
2022-09-15T05:45:39.234Z,99970.06
2022-09-15T05:48:05.876Z,99986.44
2022-09-15T05:50:32.460Z,99991.41
2022-09-15T05:52:59.008Z,99998.84
2022-09-15T05:55:27.199Z,99993.19
2022-09-15T05:57:54.191Z,99996.16
2022-09-15T06:00:21.148Z,99996.31
2022-09-15T06:02:47.978Z,99977.09
2022-09-15T06:05:14.750Z,99998.25
2022-09-15T06:07:41.352Z,99997.94
2022-09-15T06:10:09.265Z,99989.75
2022-09-15T06:12:37.414Z,100005.69
2022-09-15T06:15:04.451Z,99996.03
2022-09-15T06:17:31.535Z,99989.91
2022-09-15T06:19:58.354Z,99979.94
2022-09-15T06:22:25.014Z,99992.78
2022-09-15T06:24:51.563Z,99985.59
2022-09-15T06:27:18.184Z,99976.47
2022-09-15T06:29:46.077Z,99973.16
2022-09-15T06:32:12.748Z,99971.28
2022-09-15T06:34:39.338Z,99974.88
2022-09-15T06:37:05.910Z,100004.28
2022-09-15T06:39:32.448Z,99995.66
2022-09-15T06:42:02.667Z,100014.19
2022-09-15T06:44:29.784Z,100012.03
2022-09-15T06:46:57.696Z,100016.97
2022-09-15T06:49:24.401Z,99997.25
2022-09-15T06:51:50.940Z,100009.47
2022-09-15T06:54:17.761Z,99987.81
2022-09-15T06:56:44.733Z,100010.59
2022-09-15T06:59:11.843Z,100021.47
2022-09-15T07:01:38.621Z,100024.84
2022-09-15T07:04:08.114Z,100024.00
2022-09-15T07:06:34.661Z,100026.75
2022-09-15T07:09:01.214Z,100036.84
2022-09-15T07:11:28.477Z,100021.53
2022-09-15T07:13:55.138Z,100011.53
2022-09-15T07:16:22.069Z,100023.03
2022-09-15T07:18:49.108Z,100036.88
2022-09-15T07:21:19.600Z,100043.03
2022-09-15T07:23:46.847Z,100045.97
2022-09-15T07:26:15.427Z,100035.69
2022-09-15T07:28:43.994Z,100027.47
2022-09-15T07:31:12.307Z,100052.97
2022-09-15T07:33:38.857Z,100016.66
2022-09-15T07:36:06.514Z,100052.50
2022-09-15T07:38:35.535Z,100055.91
2022-09-15T07:41:03.387Z,100055.34
2022-09-15T07:43:29.880Z,100055.81
2022-09-15T07:45:56.916Z,100062.97
2022-09-15T07:48:26.467Z,100050.47
2022-09-15T07:50:53.433Z,100029.72
2022-09-15T07:53:20.178Z,100065.53
2022-09-15T07:55:52.099Z,100038.06
2022-09-15T07:58:18.743Z,100068.16
2022-09-15T08:00:45.532Z,100057.25
2022-09-15T08:03:12.130Z,100071.88
2022-09-15T08:05:42.342Z,100046.13
2022-09-15T08:08:11.425Z,100073.13
2022-09-15T08:10:38.591Z,100072.88
2022-09-15T08:13:06.616Z,100028.78
2022-09-15T08:15:35.415Z,100084.03
2022-09-15T08:18:02.211Z,100082.34
2022-09-15T08:20:28.749Z,100095.50
2022-09-15T08:22:55.420Z,100071.72
2022-09-15T08:25:21.929Z,100091.00
2022-09-15T08:27:48.507Z,100088.59
2022-09-15T08:30:16.562Z,100090.38
2022-09-15T08:32:43.227Z,100088.63
2022-09-15T08:35:09.783Z,100087.94
2022-09-15T08:37:36.354Z,100097.84
2022-09-15T08:40:03.341Z,100111.16
2022-09-15T08:42:30.033Z,100100.91
2022-09-15T08:45:00.335Z,100109.75
2022-09-15T08:47:33.826Z,100106.63
2022-09-15T08:50:05.418Z,100116.78
2022-09-15T08:52:33.397Z,100108.31
2022-09-15T08:55:11.652Z,100089.97
2022-09-15T08:57:38.270Z,100106.22
2022-09-15T09:00:13.271Z,100103.41
2022-09-15T09:02:58.088Z,100099.16
2022-09-15T09:05:38.547Z,100101.44
2022-09-15T09:08:30.555Z,100097.84
2022-09-15T09:11:09.003Z,100128.69
2022-09-15T09:13:40.484Z,100117.81
2022-09-15T09:16:23.804Z,100135.41
2022-09-15T09:19:03.080Z,100127.88
2022-09-15T09:21:33.054Z,100134.28
2022-09-15T09:24:04.930Z,100145.63
2022-09-15T09:26:35.127Z,100135.72
2022-09-15T09:29:06.144Z,100142.91
2022-09-15T09:31:35.708Z,100137.00
2022-09-15T09:34:13.765Z,100139.28
2022-09-15T09:36:40.363Z,100126.06
2022-09-15T09:39:12.968Z,100139.53
2022-09-15T09:41:40.849Z,100142.91
2022-09-15T09:44:11.147Z,100137.53
2022-09-15T09:46:38.353Z,100145.59
2022-09-15T09:49:13.953Z,100137.84
2022-09-15T09:51:49.707Z,100136.44
2022-09-15T09:54:16.251Z,100130.16
2022-09-15T09:56:43.647Z,100141.94
2022-09-15T09:59:39.056Z,100132.66
2022-09-15T10:02:14.162Z,100139.69
2022-09-15T10:04:43.368Z,100136.19
2022-09-15T10:07:10.851Z,100126.09
2022-09-15T10:09:38.511Z,100108.16
2022-09-15T10:12:06.450Z,100118.47
2022-09-15T10:14:35.648Z,100145.97
2022-09-15T10:17:06.315Z,100136.28
2022-09-15T10:19:36.493Z,100147.44
2022-09-15T10:22:05.028Z,100140.38
2022-09-15T10:24:34.450Z,100123.28
2022-09-15T10:27:15.889Z,100136.31
2022-09-15T10:29:42.669Z,100147.59
2022-09-15T10:32:27.232Z,100148.84
2022-09-15T10:35:02.578Z,100143.84
2022-09-15T10:37:34.166Z,100143.28
2022-09-15T10:40:09.206Z,100148.00
2022-09-15T10:42:50.538Z,100142.69
2022-09-15T10:45:32.746Z,100136.06
2022-09-15T10:48:17.354Z,100140.22
2022-09-15T10:50:54.673Z,100136.97
2022-09-15T10:53:37.115Z,100138.81
2022-09-15T10:56:13.438Z,100127.13
2022-09-15T10:58:50.664Z,100125.03
2022-09-15T11:01:31.337Z,100128.34
2022-09-15T11:04:12.328Z,100131.47
2022-09-15T11:06:47.723Z,100094.13
2022-09-15T11:09:20.978Z,100134.94
2022-09-15T11:11:59.553Z,100114.94
2022-09-15T11:14:41.662Z,100113.28
2022-09-15T11:17:23.626Z,100119.28
2022-09-15T11:20:30.354Z,100134.72
2022-09-15T11:23:03.679Z,100128.94
2022-09-15T11:25:34.572Z,100132.22
2022-09-15T11:28:09.160Z,100117.00
2022-09-15T11:30:41.660Z,100141.31
2022-09-15T11:33:18.557Z,100116.78
2022-09-15T11:35:47.911Z,100139.47
2022-09-15T11:38:30.581Z,100145.66
2022-09-15T11:41:10.271Z,100144.63
2022-09-15T11:43:43.870Z,100149.34
2022-09-15T11:46:15.052Z,100150.81
2022-09-15T11:48:45.319Z,100149.16
2022-09-15T11:51:16.080Z,100141.31
2022-09-15T11:53:50.038Z,100151.63
2022-09-15T11:56:24.397Z,100150.19
2022-09-15T11:59:02.473Z,100149.78
2022-09-15T12:01:32.319Z,100146.28
2022-09-15T12:04:03.094Z,100141.31
2022-09-15T12:06:45.811Z,100148.94
2022-09-15T12:09:15.878Z,100151.00
2022-09-15T12:11:46.308Z,100150.81
2022-09-15T12:14:16.397Z,100146.69
2022-09-15T12:16:44.138Z,100145.88
2022-09-15T12:19:18.291Z,100150.19
2022-09-15T12:21:53.792Z,100141.94
2022-09-15T12:24:34.258Z,100152.25
2022-09-15T12:27:02.535Z,100128.13
2022-09-15T12:29:31.490Z,100146.69
2022-09-15T12:32:20.192Z,100146.47
2022-09-15T12:35:02.143Z,100152.25
2022-09-15T12:37:39.822Z,100153.28
2022-09-15T12:40:26.696Z,100150.63
2022-09-15T12:42:54.833Z,100147.72
2022-09-15T12:45:24.633Z,100158.22
2022-09-15T12:47:54.993Z,100156.78
2022-09-15T12:50:25.539Z,100153.69
2022-09-15T12:52:54.430Z,100154.22
2022-09-15T12:55:24.270Z,100160.88
2022-09-15T12:57:58.441Z,100151.63
2022-09-15T13:00:34.366Z,100150.81
2022-09-15T13:03:01.970Z,100157.19
2022-09-15T13:06:11.398Z,100155.16
2022-09-15T13:08:49.204Z,100152.66
2022-09-15T13:11:19.721Z,100158.00
2022-09-15T13:13:51.599Z,100162.94
2022-09-15T13:16:25.902Z,100158.22
2022-09-15T13:19:03.619Z,100156.38
2022-09-15T13:21:31.681Z,100159.88
2022-09-15T13:23:59.149Z,100165.25
2022-09-15T13:26:28.275Z,100161.94
2022-09-15T13:28:57.808Z,100157.81
2022-09-15T13:31:35.930Z,100162.31
2022-09-15T13:40:48.434Z,100150.41
2022-09-15T13:43:42.163Z,100143.78
2022-09-15T13:46:21.513Z,100140.97
2022-09-15T13:49:13.086Z,100135.69
2022-09-15T13:51:43.496Z,100139.50
2022-09-15T13:54:16.539Z,100135.78
2022-09-15T13:56:43.822Z,100145.59
2022-09-15T13:59:17.355Z,100146.28
2022-09-15T14:01:45.806Z,100131.22
2022-09-15T14:04:15.881Z,100137.00
2022-09-15T14:06:45.159Z,100126.03
2022-09-15T14:09:15.676Z,100134.03
2022-09-15T14:11:43.732Z,100134.72
2022-09-15T14:14:32.062Z,100141.81
2022-09-15T14:17:00.127Z,100120.22
2022-09-15T14:19:30.758Z,100138.56
2022-09-15T14:21:58.658Z,100129.06
2022-09-15T14:24:27.841Z,100120.63
2022-09-15T14:26:54.637Z,100140.19
2022-09-15T14:29:23.474Z,100142.47
2022-09-15T14:31:50.230Z,100136.13
2022-09-15T14:34:21.258Z,100106.88
2022-09-15T14:37:00.421Z,100133.25
2022-09-15T14:39:26.974Z,100130.56
2022-09-15T14:41:53.574Z,100139.00
2022-09-15T14:47:12.394Z,100133.25
2022-09-15T14:49:40.270Z,100136.13
2022-09-15T14:52:22.805Z,100139.66
2022-09-15T14:54:50.411Z,100142.31
2022-09-15T14:57:22.806Z,100145.00
2022-09-15T14:59:55.197Z,100151.44
2022-09-15T15:02:28.977Z,100153.09
2022-09-15T15:05:04.814Z,100161.13
2022-09-15T15:07:35.805Z,100143.19
2022-09-15T15:10:05.930Z,100163.19
2022-09-15T15:12:35.905Z,100170.38
2022-09-15T15:15:03.181Z,100166.47
2022-09-15T15:17:35.593Z,100157.59
2022-09-15T15:20:14.195Z,100173.25
2022-09-15T15:22:42.165Z,100176.94
2022-09-15T15:25:24.575Z,100157.91
2022-09-15T15:27:52.374Z,100180.50
2022-09-15T15:30:46.025Z,100180.88
2022-09-15T15:33:19.854Z,100167.00
2022-09-15T15:36:00.925Z,100190.00
2022-09-15T15:38:27.661Z,100197.16
2022-09-15T15:41:00.422Z,100192.56
2022-09-15T15:43:27.213Z,100190.03
2022-09-15T15:45:55.284Z,100197.97
2022-09-15T15:48:21.872Z,100195.06
2022-09-15T15:50:49.715Z,100197.31
2022-09-15T15:53:16.538Z,100194.38
2022-09-15T15:55:43.831Z,100194.13
2022-09-15T15:58:11.331Z,100179.53
2022-09-15T16:00:42.348Z,100191.34
2022-09-15T16:03:08.937Z,100196.03
2022-09-15T16:05:36.124Z,100174.66
2022-09-15T16:08:07.129Z,100180.25
2022-09-15T16:10:39.889Z,100186.78
2022-09-15T16:13:06.707Z,100185.94
2022-09-15T16:15:33.234Z,100166.13
2022-09-15T16:18:00.170Z,100176.44
2022-09-15T16:20:26.718Z,100179.25
2022-09-15T16:22:53.315Z,100182.50
2022-09-15T16:25:31.136Z,100183.69
2022-09-15T16:27:57.692Z,100183.19
2022-09-15T16:30:24.179Z,100162.97
2022-09-15T16:32:50.701Z,100175.25
2022-09-15T16:35:26.377Z,100181.84
2022-09-15T16:37:53.149Z,100177.06
2022-09-15T16:40:19.704Z,100166.88
2022-09-15T16:42:48.402Z,100185.38
2022-09-15T16:45:23.295Z,100190.44
2022-09-15T16:47:49.844Z,100177.84
2022-09-15T16:50:16.566Z,100182.44
2022-09-15T16:52:43.373Z,100181.44
2022-09-15T16:55:23.045Z,100177.28
2022-09-15T16:57:51.177Z,100180.72
2022-09-15T17:00:17.855Z,100183.78
2022-09-15T17:02:44.539Z,100172.44
2022-09-15T17:05:20.436Z,100182.28
2022-09-15T17:07:47.089Z,100180.19
2022-09-15T17:10:13.775Z,100185.72
2022-09-15T17:12:40.534Z,100186.38
2022-09-15T17:15:24.188Z,100186.28
2022-09-15T17:17:50.965Z,100187.47
2022-09-15T17:20:18.031Z,100196.22
2022-09-15T17:22:44.918Z,100166.53
2022-09-15T17:25:20.001Z,100198.91
2022-09-15T17:27:46.579Z,100208.03
2022-09-15T17:30:13.814Z,100200.38
2022-09-15T17:32:42.264Z,100206.53
2022-09-15T17:35:15.656Z,100201.66
2022-09-15T17:37:42.532Z,100205.00
2022-09-15T17:40:10.263Z,100203.59
2022-09-15T17:42:36.941Z,100210.16
2022-09-15T17:45:14.070Z,100192.94
2022-09-15T17:47:42.049Z,100193.00
2022-09-15T17:50:09.580Z,100207.59
2022-09-15T17:52:36.172Z,100186.53
2022-09-15T17:55:10.147Z,100170.06
2022-09-15T17:57:36.651Z,100206.50
2022-09-15T18:00:04.588Z,100202.69
2022-09-15T18:02:31.984Z,100177.94
2022-09-15T18:04:59.966Z,100195.59
2022-09-15T18:07:26.602Z,100206.63
2022-09-15T18:09:53.134Z,100201.56
2022-09-15T18:12:19.990Z,100213.28
2022-09-15T18:14:46.466Z,100212.97
2022-09-15T18:17:13.040Z,100214.63
2022-09-15T18:19:39.546Z,100217.34
2022-09-15T18:22:08.931Z,100218.72
2022-09-15T18:24:35.426Z,100224.44
2022-09-15T18:27:02.013Z,100218.78
2022-09-15T18:29:28.496Z,100224.31
2022-09-15T18:31:55.036Z,100232.63
2022-09-15T18:34:21.551Z,100217.75
2022-09-15T18:36:48.147Z,100234.34
2022-09-15T18:39:16.018Z,100239.88
2022-09-15T18:41:42.646Z,100244.38
2022-09-15T18:44:09.183Z,100244.38
2022-09-15T18:46:35.834Z,100243.88
2022-09-15T18:49:02.383Z,100235.97
2022-09-15T18:51:34.884Z,100252.25
2022-09-15T18:54:16.947Z,100243.97
2022-09-15T18:56:43.507Z,100236.34
2022-09-15T18:59:10.410Z,100243.00
2022-09-15T19:01:37.127Z,100250.50
2022-09-15T19:04:03.810Z,100247.72
2022-09-15T19:06:30.282Z,100252.69
2022-09-15T19:08:57.188Z,100244.94
2022-09-15T19:11:28.813Z,100250.41
2022-09-15T19:13:55.715Z,100231.19
2022-09-15T19:16:22.956Z,100249.13
2022-09-15T19:18:52.793Z,100269.53
2022-09-15T19:21:21.089Z,100248.78
2022-09-15T19:23:50.565Z,100269.53
2022-09-15T19:26:17.128Z,100266.69
2022-09-15T19:28:45.792Z,100239.34
2022-09-15T19:31:13.017Z,100269.19
2022-09-15T19:33:39.875Z,100256.56
2022-09-15T19:36:27.445Z,100267.34
2022-09-15T19:38:54.473Z,100218.63
2022-09-15T19:41:21.264Z,100261.88
2022-09-15T19:43:49.447Z,100151.31
2022-09-15T19:46:18.979Z,100245.09
2022-09-15T19:48:49.349Z,100263.03
2022-09-15T19:51:24.674Z,100232.03
2022-09-15T19:53:54.680Z,100267.34
2022-09-15T19:56:22.937Z,100267.34
2022-09-15T19:58:50.989Z,100272.00
2022-09-15T20:01:19.884Z,100277.47
2022-09-15T20:03:46.437Z,100267.06
2022-09-15T20:06:13.151Z,100266.16
2022-09-15T20:08:39.663Z,100282.50
2022-09-15T20:11:07.528Z,100277.16
2022-09-15T20:13:34.805Z,100271.47
2022-09-15T20:16:03.277Z,100269.81
2022-09-15T20:18:30.210Z,100289.66
2022-09-15T20:20:57.158Z,100282.31
2022-09-15T20:23:23.795Z,100290.09
2022-09-15T20:25:57.683Z,100283.19
2022-09-15T20:28:24.851Z,100284.53
2022-09-15T20:31:04.538Z,100277.06
2022-09-15T20:33:31.743Z,100299.47
2022-09-15T20:36:00.613Z,100295.13
2022-09-15T20:38:27.555Z,100294.28
2022-09-15T20:40:54.487Z,100270.28
2022-09-15T20:43:21.163Z,100306.13
2022-09-15T20:45:55.368Z,100304.31
2022-09-15T20:48:23.599Z,100312.44
2022-09-15T20:50:50.137Z,100314.44
2022-09-15T20:53:16.718Z,100314.97
2022-09-15T20:55:48.724Z,100312.00
2022-09-15T20:58:15.483Z,100309.34
2022-09-15T21:00:42.051Z,100316.00
2022-09-15T21:03:08.634Z,100301.75
2022-09-15T21:05:36.484Z,100310.72
2022-09-15T21:08:03.095Z,100286.81
2022-09-15T21:10:29.604Z,100309.22
2022-09-15T21:12:56.166Z,100322.50
2022-09-15T21:15:22.708Z,100322.34
2022-09-15T21:17:49.271Z,100302.44
2022-09-15T21:20:16.051Z,100316.38
2022-09-15T21:22:43.981Z,100320.38
2022-09-15T21:25:10.476Z,100318.88
2022-09-15T21:27:37.302Z,100314.22
2022-09-15T21:30:04.961Z,100320.69
2022-09-15T21:32:32.187Z,100311.56
2022-09-15T21:34:58.726Z,100330.38
2022-09-15T21:37:26.067Z,100329.88
2022-09-15T21:39:54.051Z,100329.41
2022-09-15T21:42:20.681Z,100318.09
2022-09-15T21:44:47.177Z,100331.38
2022-09-15T21:47:13.747Z,100334.72
2022-09-15T21:49:40.241Z,100345.81
2022-09-15T21:52:06.805Z,100341.84
2022-09-15T21:54:33.318Z,100351.50
2022-09-15T21:57:01.273Z,100350.19
2022-09-15T21:59:27.943Z,100323.44
2022-09-15T22:01:54.530Z,100348.69
2022-09-15T22:04:21.302Z,100336.53
2022-09-15T22:06:47.886Z,100320.47
2022-09-15T22:09:17.023Z,100325.78
2022-09-15T22:11:44.067Z,100344.88
2022-09-15T22:14:11.970Z,100343.56
2022-09-15T22:16:40.135Z,100346.22
2022-09-15T22:19:07.793Z,100336.72
2022-09-15T22:21:34.851Z,100339.38
2022-09-15T22:24:02.439Z,100344.03
2022-09-15T22:26:30.908Z,100345.69
2022-09-15T22:28:59.305Z,100344.38
2022-09-15T22:31:28.193Z,100329.41
2022-09-15T22:33:56.513Z,100334.09
2022-09-15T22:36:29.325Z,100340.72
2022-09-15T22:38:57.834Z,100347.69
2022-09-15T22:41:24.506Z,100350.53
2022-09-15T22:43:51.292Z,100335.09
2022-09-15T22:46:19.146Z,100304.66
2022-09-15T22:48:47.367Z,100329.44
2022-09-15T22:51:14.386Z,100340.22
2022-09-15T22:53:41.395Z,100349.88
2022-09-15T22:56:10.743Z,100354.81
2022-09-15T22:58:37.631Z,100361.81
2022-09-15T23:01:05.284Z,100362.63
2022-09-15T23:03:31.941Z,100362.13
2022-09-15T23:06:00.791Z,100352.47
2022-09-15T23:08:27.429Z,100363.47
2022-09-15T23:11:00.928Z,100357.63
2022-09-15T23:13:27.477Z,100369.25
2022-09-15T23:15:53.999Z,100363.41
2022-09-15T23:18:20.673Z,100333.69
2022-09-15T23:20:47.182Z,100361.59
2022-09-15T23:23:15.137Z,100356.78
2022-09-15T23:25:41.638Z,100356.94
2022-09-15T23:28:08.166Z,100354.28
2022-09-15T23:30:34.650Z,100351.28
2022-09-15T23:33:01.233Z,100344.16
2022-09-15T23:35:27.697Z,100345.97
2022-09-15T23:37:54.219Z,100339.00
2022-09-15T23:40:22.109Z,100342.66
2022-09-15T23:42:48.755Z,100313.44
2022-09-15T23:45:15.387Z,100335.69
2022-09-15T23:47:41.933Z,100337.19
2022-09-15T23:50:09.359Z,100324.69
2022-09-15T23:52:35.979Z,100341.97
2022-09-15T23:55:02.501Z,100338.47
2022-09-15T23:57:30.492Z,100338.13
2022-09-15T23:59:56.977Z,100338.09
